Time;durP1;ratioP1;P1;durP2;ratioP2;P2;SDS_P1;SDS_P2;PMS_P1;PMS_P2;Temp;Humidity;BMP_temperature;BMP_pressure;BME280_temperature;BME280_humidity;BME280_pressure;Samples;Min_cycle;Max_cycle;Signal;HPM_P1;HPM_P2
2022/01/27 00:00:06;;;;;;;;;54.00;42.50;;;;;7.07;57.66;102862.00;5100932;27;46244;-69
2022/01/27 00:05:16;;;;;;;;;60.00;45.25;;;;;7.16;57.62;102862.69;5115047;27;45458;-68
2022/01/27 00:07:43;;;;;;;;;55.75;41.75;;;;;7.16;57.37;102857.38;5097129;27;45440;-68
2022/01/27 00:10:23;;;;;;;;;47.50;36.50;;;;;7.08;57.33;102858.53;5098015;27;46076;-70
2022/01/27 00:12:49;;;;;;;;;53.50;38.50;;;;;7.05;57.44;102837.03;5096540;27;45423;-67
2022/01/27 00:15:16;;;;;;;;;58.25;40.00;;;;;7.18;57.05;102847.78;5096341;27;45643;-67
2022/01/27 00:17:55;;;;;;;;;52.75;40.25;;;;;6.80;57.01;102791.78;5090412;27;45373;-70
2022/01/27 00:20:20;;;;;;;;;48.00;37.75;;;;;7.17;57.26;102856.53;5110244;27;46303;-68
2022/01/27 00:22:45;;;;;;;;;73.50;54.75;;;;;7.17;57.50;102848.56;5096634;27;45480;-67
2022/01/27 00:25:11;;;;;;;;;58.75;39.25;;;;;6.95;57.13;102808.88;5077830;27;45433;-69
2022/01/27 00:27:37;;;;;;;;;60.25;46.00;;;;;6.95;57.20;102805.28;5096614;27;45537;-69
2022/01/27 00:30:05;;;;;;;;;44.75;37.00;;;;;6.99;57.22;102802.03;5097934;27;45523;-68
2022/01/27 00:32:32;;;;;;;;;55.00;39.75;;;;;6.99;57.06;102810.00;5096136;27;45452;-68
2022/01/27 00:34:58;;;;;;;;;46.25;38.75;;;;;7.14;57.39;102826.16;5111834;27;45644;-68
2022/01/27 00:37:23;;;;;;;;;48.25;38.00;;;;;6.91;57.77;102796.13;5116385;27;45679;-68
2022/01/27 00:39:49;;;;;;;;;53.25;38.75;;;;;7.11;57.40;102826.88;5108102;27;46094;-69
2022/01/27 00:42:14;;;;;;;;;52.25;38.50;;;;;7.14;57.15;102826.16;5095736;27;45310;-68
2022/01/27 00:44:39;;;;;;;;;49.00;37.25;;;;;7.03;57.24;102825.38;5096287;27;45374;-68
2022/01/27 00:47:05;;;;;;;;;49.75;35.25;;;;;7.11;57.19;102824.22;5096632;27;45490;-68
2022/01/27 00:49:31;;;;;;;;;51.00;37.50;;;;;6.91;57.50;102777.53;5107264;27;45451;-69
2022/01/27 00:51:57;;;;;;;;;49.50;40.00;;;;;7.22;56.96;102819.69;5111904;27;45619;-70
2022/01/27 00:54:26;;;;;;;;;67.75;51.25;;;;;7.28;57.65;102822.78;5116535;27;45471;-68
2022/01/27 00:59:41;;;;;;;;;63.25;43.50;;;;;7.34;56.90;102809.97;5095675;27;45498;-71
2022/01/27 01:02:16;;;;;;;;;45.25;34.75;;;;;7.18;56.97;102773.34;5095795;27;45516;-69
2022/01/27 01:04:46;;;;;;;;;49.75;38.00;;;;;7.43;57.04;102796.38;5095688;27;45342;-69
2022/01/27 01:07:13;;;;;;;;;50.75;37.25;;;;;7.48;56.04;102805.63;5096664;27;45469;-70
2022/01/27 01:15:37;;;;;;;;;47.75;38.50;;;;;7.35;56.78;102801.16;5115530;27;45510;-68
2022/01/27 01:20:26;;;;;;;;;55.75;35.25;;;;;7.33;56.50;102783.25;5095319;27;46109;-67
2022/01/27 01:34:23;;;;;;;;;49.50;37.50;;;;;7.37;56.50;102780.94;5055289;27;45602;-69
2022/01/27 01:39:22;;;;;;;;;48.00;38.75;;;;;7.33;57.23;102772.63;5107183;27;45495;-69
2022/01/27 01:41:54;;;;;;;;;49.75;39.00;;;;;7.33;56.73;102764.63;5095237;27;46509;-67
2022/01/27 01:44:20;;;;;;;;;47.00;38.00;;;;;7.22;57.17;102753.22;5104163;27;45449;-69
2022/01/27 01:46:46;;;;;;;;;52.75;39.25;;;;;7.30;57.71;102762.66;5115118;27;45326;-68
2022/01/27 01:49:11;;;;;;;;;62.00;40.75;;;;;7.26;57.59;102752.63;5106533;27;45467;-68
2022/01/27 01:51:39;;;;;;;;;55.50;42.00;;;;;7.38;57.31;102776.53;5080014;27;46393;-70
2022/01/27 01:54:06;;;;;;;;;57.00;42.00;;;;;7.37;57.41;102766.69;5095088;27;45401;-70
2022/01/27 01:56:32;;;;;;;;;54.75;39.50;;;;;7.28;57.41;102747.44;5102450;27;45222;-67
2022/01/27 01:58:58;;;;;;;;;61.50;42.50;;;;;7.34;57.49;102755.81;5115386;27;45580;-70
2022/01/27 02:01:24;;;;;;;;;60.75;43.50;;;;;7.31;57.73;102751.22;5114706;27;45834;-68
2022/01/27 02:03:50;;;;;;;;;49.00;39.00;;;;;7.36;57.86;102748.91;5114795;27;45754;-69
2022/01/27 02:06:28;;;;;;;;;56.75;41.75;;;;;7.38;57.98;102750.84;5114753;27;45678;-67
2022/01/27 02:19:54;;;;;;;;;63.00;45.50;;;;;7.18;58.27;102752.06;5095799;27;45329;-69
2022/01/27 02:22:20;;;;;;;;;56.25;43.00;;;;;7.13;58.98;102736.63;5094685;27;46055;-69
2022/01/27 02:24:46;;;;;;;;;60.00;46.25;;;;;7.16;58.40;102745.72;5092776;27;45405;-68
2022/01/27 02:27:14;;;;;;;;;57.00;42.00;;;;;6.74;59.05;102664.72;5092404;27;45529;-67
2022/01/27 02:29:40;;;;;;;;;58.25;42.75;;;;;7.18;58.49;102727.25;5114588;27;45443;-69
2022/01/27 02:32:07;;;;;;;;;55.75;42.50;;;;;7.17;58.69;102726.28;5114139;27;45491;-69
2022/01/27 02:34:33;;;;;;;;;53.25;39.00;;;;;7.32;58.10;102747.75;5092025;27;45616;-68
2022/01/27 02:36:58;;;;;;;;;60.00;45.00;;;;;7.22;58.16;102723.97;5094661;27;45255;-69
2022/01/27 02:39:24;;;;;;;;;70.00;45.00;;;;;7.27;58.64;102741.16;5096586;27;45408;-69
2022/01/27 02:41:49;;;;;;;;;52.25;40.25;;;;;7.27;58.88;102742.91;5095321;27;45550;-70
2022/01/27 02:44:46;;;;;;;;;58.50;43.75;;;;;7.29;58.41;102730.66;5101367;27;45611;-68
2022/01/27 02:47:13;;;;;;;;;65.50;46.00;;;;;7.30;58.48;102722.78;5100249;27;45731;-69
2022/01/27 02:49:39;;;;;;;;;54.50;38.50;;;;;7.12;58.43;102695.81;5095948;27;45662;-69
2022/01/27 02:52:05;;;;;;;;;63.00;43.75;;;;;7.25;58.66;102721.53;5094338;27;46019;-69
2022/01/27 02:54:30;;;;;;;;;58.00;39.50;;;;;7.17;59.27;102717.41;5094867;27;45708;-70
2022/01/27 02:56:55;;;;;;;;;59.25;42.00;;;;;7.14;58.73;102710.16;5099715;27;45659;-69
2022/01/27 02:59:21;;;;;;;;;56.25;44.25;;;;;7.11;58.53;102701.00;5113222;27;45339;-67
2022/01/27 03:01:50;;;;;;;;;63.00;48.25;;;;;7.24;58.54;102717.03;5116086;27;45403;-70
2022/01/27 03:04:18;;;;;;;;;57.25;45.75;;;;;7.23;58.82;102714.28;5112696;27;45584;-70
2022/01/27 03:06:45;;;;;;;;;57.25;42.00;;;;;7.22;59.16;102723.97;5116315;27;45526;-67
2022/01/27 03:09:11;;;;;;;;;53.50;44.00;;;;;7.11;58.71;102701.94;5117540;27;45505;-72
2022/01/27 03:11:38;;;;;;;;;58.00;43.25;;;;;7.19;59.02;102719.38;5116217;27;45578;-68
2022/01/27 03:14:05;;;;;;;;;58.50;41.50;;;;;7.19;58.59;102711.41;5116845;27;45637;-69
2022/01/27 03:16:30;;;;;;;;;56.50;44.00;;;;;7.18;59.04;102712.19;5099217;27;45661;-69
2022/01/27 03:18:56;;;;;;;;;63.25;44.75;;;;;7.19;59.05;102706.09;5099494;27;45572;-69
2022/01/27 03:21:21;;;;;;;;;58.00;42.00;;;;;6.98;59.14;102672.66;5097528;27;45985;-67
2022/01/27 03:23:47;;;;;;;;;62.00;44.00;;;;;7.08;59.58;102695.47;5097597;27;46225;-68
2022/01/27 03:26:13;;;;;;;;;58.50;44.00;;;;;7.09;59.16;102708.88;5099510;27;45479;-68
2022/01/27 03:28:38;;;;;;;;;57.50;46.00;;;;;7.05;59.38;102705.91;5097470;27;45438;-67
2022/01/27 03:31:04;;;;;;;;;52.00;39.00;;;;;6.99;59.61;102707.28;5098596;27;45491;-71
2022/01/27 03:33:29;;;;;;;;;56.25;39.75;;;;;6.95;59.62;102710.53;5100595;27;45506;-67
2022/01/27 03:35:54;;;;;;;;;62.50;45.75;;;;;6.91;59.81;102710.19;5097322;27;45487;-68
2022/01/27 03:38:20;;;;;;;;;62.00;41.75;;;;;6.91;59.65;102705.78;5097843;27;45631;-68
2022/01/27 03:40:45;;;;;;;;;62.00;41.75;;;;;6.49;59.80;102637.22;5098705;27;45681;-68
2022/01/27 03:43:11;;;;;;;;;55.50;42.25;;;;;6.82;59.86;102684.81;5097412;27;45455;-68
2022/01/27 03:45:37;;;;;;;;;59.25;41.75;;;;;6.98;59.78;102701.88;5078753;27;45547;-69
2022/01/27 03:48:03;;;;;;;;;58.00;40.75;;;;;6.99;59.63;102703.72;5097439;27;45559;-68
2022/01/27 03:50:29;;;;;;;;;58.75;42.50;;;;;6.78;59.64;102671.19;5103238;27;46926;-68
2022/01/27 03:52:54;;;;;;;;;49.75;39.00;;;;;6.95;59.85;102691.03;5096722;27;45491;-69
2022/01/27 03:55:20;;;;;;;;;56.00;42.00;;;;;7.09;59.28;102708.88;5097077;27;45500;-67
2022/01/27 03:57:45;;;;;;;;;65.75;45.25;;;;;7.08;59.82;102701.72;5103795;27;45326;-68
2022/01/27 04:00:11;;;;;;;;;61.75;43.75;;;;;7.05;59.31;102704.16;5108347;27;46511;-67
2022/01/27 04:02:41;;;;;;;;;51.75;41.00;;;;;6.98;59.60;102702.78;5100095;27;45396;-69
2022/01/27 04:05:07;;;;;;;;;57.25;45.50;;;;;6.96;59.44;102704.44;5103182;27;45493;-70
2022/01/27 04:07:33;;;;;;;;;59.25;44.25;;;;;6.97;59.52;102700.03;5100921;27;45654;-70
2022/01/27 04:09:58;;;;;;;;;63.00;45.75;;;;;6.62;59.30;102653.22;5096413;27;45573;-67
2022/01/27 04:12:23;;;;;;;;;65.75;44.25;;;;;6.88;59.87;102696.69;5095986;27;45395;-72
2022/01/27 04:14:49;;;;;;;;;57.25;41.50;;;;;6.87;59.89;102689.56;5098673;27;45398;-67
2022/01/27 04:17:14;;;;;;;;;55.25;42.25;;;;;6.65;59.75;102648.16;5096767;27;45510;-67
2022/01/27 04:19:39;;;;;;;;;48.50;38.25;;;;;6.91;60.22;102703.13;5096335;27;46282;-68
2022/01/27 04:22:05;;;;;;;;;47.00;39.50;;;;;6.94;59.95;102697.13;5097596;27;45450;-69
2022/01/27 04:24:30;;;;;;;;;54.50;41.50;;;;;6.92;59.84;102685.50;5098676;27;45675;-68
2022/01/27 04:27:05;;;;;;;;;55.25;38.50;;;;;6.99;59.93;102694.00;5096560;27;45448;-70
2022/01/27 04:29:34;;;;;;;;;52.75;37.50;;;;;6.89;60.03;102691.50;5079383;27;46160;-69
2022/01/27 04:32:01;;;;;;;;;56.75;42.00;;;;;6.53;60.61;102637.53;5109212;27;45415;-70
2022/01/27 04:34:27;;;;;;;;;53.75;42.25;;;;;6.92;60.70;102699.69;5115845;27;45653;-68
2022/01/27 04:36:54;;;;;;;;;54.25;36.00;;;;;6.88;60.02;102697.63;5116247;27;45437;-69
2022/01/27 04:39:33;;;;;;;;;53.25;40.00;;;;;6.87;60.03;102689.56;5116760;27;46311;-69
2022/01/27 04:42:06;;;;;;;;;52.50;39.75;;;;;6.80;60.34;102675.81;5103753;27;45446;-71
2022/01/27 04:44:46;;;;;;;;;61.25;47.00;;;;;7.01;59.96;102715.38;5097030;27;45510;-69
2022/01/27 04:47:18;;;;;;;;;62.75;43.00;;;;;7.06;59.47;102699.75;5096379;27;45767;-69
2022/01/27 04:49:44;;;;;;;;;48.25;38.00;;;;;6.93;59.85;102679.34;5097397;27;46175;-69
2022/01/27 04:52:10;;;;;;;;;53.75;38.50;;;;;7.06;59.62;102707.72;5099924;27;45355;-69
2022/01/27 04:54:52;;;;;;;;;54.00;42.00;;;;;6.99;59.94;102687.75;5095893;27;45449;-69
2022/01/27 04:57:17;;;;;;;;;57.75;40.75;;;;;6.79;59.85;102660.66;5101062;27;45309;-69
2022/01/27 04:59:44;;;;;;;;;54.25;40.00;;;;;7.01;59.37;102694.09;5106151;27;46290;-68
2022/01/27 05:02:18;;;;;;;;;58.50;41.75;;;;;6.75;59.38;102669.25;5098423;27;45420;-69
2022/01/27 05:04:47;;;;;;;;;62.25;43.00;;;;;6.92;60.29;102697.03;5077642;27;45424;-69
2022/01/27 05:07:13;;;;;;;;;51.50;39.75;;;;;6.93;59.75;102692.63;5077350;27;45577;-70
2022/01/27 05:09:46;;;;;;;;;46.00;39.00;;;;;6.96;59.98;102691.13;5098381;27;46079;-68
2022/01/27 05:12:20;;;;;;;;;43.25;36.75;;;;;6.75;59.62;102650.66;5095617;27;45496;-70
2022/01/27 05:14:45;;;;;;;;;61.25;42.00;;;;;6.98;59.67;102688.59;5095491;27;45243;-67
2022/01/27 05:17:10;;;;;;;;;53.00;40.50;;;;;6.95;60.06;102689.28;5102322;27;45462;-67
2022/01/27 05:19:35;;;;;;;;;42.25;38.50;;;;;6.87;60.19;102692.22;5095597;27;46142;-72
2022/01/27 05:22:01;;;;;;;;;55.50;39.75;;;;;6.80;60.27;102672.25;5095945;27;45514;-70
2022/01/27 05:24:27;;;;;;;;;53.75;41.75;;;;;6.85;60.35;102684.13;5096307;27;45585;-68
2022/01/27 05:26:52;;;;;;;;;49.50;41.25;;;;;6.82;60.55;102687.47;5095717;27;45400;-69
2022/01/27 05:29:17;;;;;;;;;46.00;36.75;;;;;6.81;60.51;102669.69;5098552;27;45723;-68
2022/01/27 05:31:43;;;;;;;;;54.50;39.50;;;;;6.79;60.18;102665.06;5101598;27;45495;-68
2022/01/27 05:34:08;;;;;;;;;48.25;36.50;;;;;6.93;60.12;102680.28;5095655;27;45425;-70
2022/01/27 05:36:34;;;;;;;;;60.00;44.50;;;;;6.86;60.20;102666.44;5095958;27;45509;-71
2022/01/27 05:39:00;;;;;;;;;58.50;42.25;;;;;6.96;60.32;102675.19;5095308;27;46072;-69
2022/01/27 05:41:26;;;;;;;;;55.00;37.75;;;;;6.90;60.07;102681.81;5100648;27;45459;-69
2022/01/27 05:43:51;;;;;;;;;53.25;38.75;;;;;6.90;60.18;102679.16;5095191;27;45626;-67
2022/01/27 05:46:16;;;;;;;;;48.50;37.50;;;;;6.95;60.03;102673.34;5100695;27;45615;-68
2022/01/27 05:48:42;;;;;;;;;60.75;40.75;;;;;6.78;60.33;102640.25;5095155;27;45484;-71
2022/01/27 05:51:07;;;;;;;;;49.75;38.25;;;;;6.82;59.99;102639.63;5098771;27;45299;-69
2022/01/27 05:53:35;;;;;;;;;46.25;41.50;;;;;7.02;59.36;102666.72;5096130;27;45606;-69
2022/01/27 05:56:01;;;;;;;;;42.75;36.25;;;;;7.05;59.56;102669.59;5095363;27;45833;-71
2022/01/27 05:58:29;;;;;;;;;58.75;40.50;;;;;6.82;59.62;102636.97;5094924;27;46232;-68
2022/01/27 06:00:55;;;;;;;;;46.75;38.75;;;;;6.90;59.70;102661.47;5100949;27;45374;-68
2022/01/27 06:03:20;;;;;;;;;54.75;36.25;;;;;6.94;60.17;102667.91;5099933;27;45247;-69
2022/01/27 06:05:45;;;;;;;;;49.00;39.50;;;;;6.80;59.87;102643.03;5095663;27;45556;-67
2022/01/27 06:08:11;;;;;;;;;54.00;37.00;;;;;6.98;59.80;102678.88;5099211;27;45832;-68
2022/01/27 06:10:36;;;;;;;;;54.00;41.00;;;;;6.97;60.16;102682.34;5098682;27;45263;-68
2022/01/27 06:13:02;;;;;;;;;53.00;39.75;;;;;7.02;60.42;102690.66;5098022;27;45587;-69
2022/01/27 06:15:27;;;;;;;;;38.50;32.25;;;;;6.82;59.67;102652.94;5108819;27;45532;-68
2022/01/27 06:17:54;;;;;;;;;43.75;33.75;;;;;6.97;59.77;102668.13;5104889;27;46350;-70
2022/01/27 06:20:20;;;;;;;;;51.00;37.75;;;;;7.16;60.13;102688.97;5097385;27;45572;-66
2022/01/27 06:22:46;;;;;;;;;56.50;43.25;;;;;7.22;59.70;102691.16;5113296;27;45546;-69
2022/01/27 06:25:14;;;;;;;;;53.00;38.00;;;;;7.23;59.76;102695.66;5114051;27;45509;-67
2022/01/27 06:27:39;;;;;;;;;39.00;35.25;;;;;7.20;59.57;102691.03;5112133;27;45152;-67
2022/01/27 06:30:07;;;;;;;;;49.00;40.75;;;;;7.18;59.55;102693.59;5093443;27;45046;-69
2022/01/27 06:32:34;;;;;;;;;52.25;40.75;;;;;7.20;59.57;102691.03;5110817;27;45090;-72
2022/01/27 06:35:03;;;;;;;;;59.00;39.50;;;;;7.05;59.28;102668.69;5119665;27;45152;-71
2022/01/27 06:37:28;;;;;;;;;49.50;36.00;;;;;7.11;59.72;102685.06;5115795;27;45668;-68
2022/01/27 06:39:54;;;;;;;;;53.75;42.00;;;;;6.53;59.24;102580.84;5116786;27;45291;-68
2022/01/27 06:42:19;;;;;;;;;47.75;35.50;;;;;7.13;59.45;102695.00;5117338;27;45397;-69
2022/01/27 06:44:44;;;;;;;;;49.25;36.50;;;;;7.11;59.61;102698.34;5121425;27;45118;-68
2022/01/27 06:47:10;;;;;;;;;44.75;35.50;;;;;7.09;59.73;102698.25;5096722;27;47266;-70
2022/01/27 06:49:35;;;;;;;;;55.75;40.25;;;;;7.13;59.63;102696.75;5122953;27;45068;-67
2022/01/27 06:52:01;;;;;;;;;52.75;40.00;;;;;7.11;59.62;102686.00;5109313;27;46163;-68
2022/01/27 06:54:26;;;;;;;;;49.00;38.25;;;;;7.23;59.56;102706.31;5118613;27;45492;-67
2022/01/27 06:56:51;;;;;;;;;58.00;41.75;;;;;7.25;59.09;102710.91;5132086;27;45684;-68
2022/01/27 06:59:17;;;;;;;;;56.25;42.75;;;;;7.23;59.63;102701.00;5131253;27;45219;-67
2022/01/27 07:01:42;;;;;;;;;48.50;36.25;;;;;7.27;59.75;102698.63;5104076;27;45311;-67
2022/01/27 07:04:07;;;;;;;;;50.50;38.25;;;;;7.24;59.42;102709.03;5099935;27;45864;-68
2022/01/27 07:06:34;;;;;;;;;49.50;38.25;;;;;7.10;59.55;102688.56;5110107;27;45681;-70
2022/01/27 07:09:00;;;;;;;;;55.50;42.75;;;;;7.24;59.57;102709.03;5120040;27;45305;-68
2022/01/27 07:11:25;;;;;;;;;47.75;38.00;;;;;7.28;59.55;102707.56;5107396;27;45357;-69
2022/01/27 07:13:51;;;;;;;;;52.75;40.75;;;;;7.16;59.22;102696.94;5097472;27;45629;-68
2022/01/27 07:16:16;;;;;;;;;39.25;33.25;;;;;7.22;59.34;102710.69;5109615;27;45417;-67
2022/01/27 07:18:41;;;;;;;;;50.25;38.25;;;;;7.13;59.46;102697.66;5099202;27;45316;-67
2022/01/27 07:21:07;;;;;;;;;53.75;42.00;;;;;7.12;59.60;102702.88;5096901;27;45644;-70
2022/01/27 07:23:33;;;;;;;;;58.25;38.50;;;;;7.14;59.31;102704.84;5103119;27;45484;-67
2022/01/27 07:25:58;;;;;;;;;46.00;37.75;;;;;7.01;59.74;102689.72;5110992;27;45664;-68
2022/01/27 07:28:24;;;;;;;;;51.00;39.50;;;;;7.15;59.48;102700.44;5096277;27;45620;-67
2022/01/27 07:30:49;;;;;;;;;48.75;35.50;;;;;7.12;59.47;102706.44;5096952;27;45469;-69
2022/01/27 07:33:14;;;;;;;;;47.25;35.25;;;;;7.09;59.61;102697.31;5096714;27;45281;-67
2022/01/27 07:35:41;;;;;;;;;59.75;38.75;;;;;7.13;59.57;102702.06;5096100;27;45358;-68
2022/01/27 07:38:06;;;;;;;;;47.00;39.25;;;;;7.06;59.98;102690.06;5096349;27;45283;-67
2022/01/27 07:40:32;;;;;;;;;56.50;39.25;;;;;6.87;59.37;102649.69;5096697;27;45451;-67
2022/01/27 07:42:58;;;;;;;;;45.75;36.25;;;;;6.96;59.77;102664.56;5093648;27;45613;-68
2022/01/27 07:45:23;;;;;;;;;52.50;37.75;;;;;7.18;59.88;102706.88;5096393;27;46519;-69
2022/01/27 07:47:48;;;;;;;;;51.50;37.75;;;;;7.00;59.59;102658.66;5095958;27;45633;-69
2022/01/27 07:50:14;;;;;;;;;46.00;38.00;;;;;7.12;59.62;102669.22;5101460;27;45448;-67
2022/01/27 07:52:41;;;;;;;;;52.75;38.25;;;;;7.29;59.05;102710.31;5098032;27;45504;-68
2022/01/27 07:55:08;;;;;;;;;50.50;36.50;;;;;7.31;59.19;102697.09;5115789;27;45645;-69
2022/01/27 07:57:34;;;;;;;;;52.75;40.50;;;;;7.26;58.96;102683.50;5098004;27;45685;-69
2022/01/27 07:59:59;;;;;;;;;56.75;41.50;;;;;7.33;59.43;102698.16;5116040;27;45804;-67
2022/01/27 08:02:24;;;;;;;;;54.75;38.25;;;;;7.33;59.81;102706.13;5116341;27;45457;-67
2022/01/27 08:04:50;;;;;;;;;34.75;31.00;;;;;7.23;59.53;102688.59;5097565;27;46113;-68
2022/01/27 08:07:16;;;;;;;;;55.25;40.00;;;;;7.32;59.25;102709.59;5115718;27;45552;-70
2022/01/27 08:09:41;;;;;;;;;45.50;38.25;;;;;7.20;59.25;102689.31;5115817;27;45399;-67
2022/01/27 08:12:07;;;;;;;;;48.50;38.50;;;;;7.31;58.91;102694.44;5116216;27;45597;-68
2022/01/27 08:14:33;;;;;;;;;55.75;43.00;;;;;7.39;59.82;102717.19;5115749;27;46214;-67
2022/01/27 08:16:59;;;;;;;;;49.50;38.00;;;;;7.42;59.21;102717.41;5115775;27;45624;-67
2022/01/27 08:19:24;;;;;;;;;45.00;37.75;;;;;7.34;59.40;102686.69;5109222;27;45525;-68
2022/01/27 08:21:50;;;;;;;;;55.75;43.00;;;;;7.53;59.40;102710.22;5116165;27;45461;-68
2022/01/27 08:24:17;;;;;;;;;52.50;38.75;;;;;7.55;58.46;102709.47;5115620;27;45484;-69
2022/01/27 08:26:45;;;;;;;;;48.75;37.00;;;;;7.45;58.75;102690.13;5116714;27;45425;-69
2022/01/27 08:29:59;;;;;;;;;53.25;37.50;;;;;7.64;58.71;102721.56;5097806;27;45433;-69
2022/01/27 08:32:02;;;;;;;;;49.50;37.50;;;;;7.38;58.61;102672.81;5104708;27;45342;-67
2022/01/27 08:34:37;;;;;;;;;52.00;38.50;;;;;7.63;58.26;102725.06;5115744;27;46169;-67
2022/01/27 08:37:12;;;;;;;;;58.25;35.75;;;;;7.09;58.01;102623.81;5112204;27;45369;-69
2022/01/27 08:39:39;;;;;;;;;50.00;40.50;;;;;7.59;58.37;102715.03;5095438;27;45392;-69
2022/01/27 08:42:06;;;;;;;;;51.50;36.25;;;;;7.58;58.58;102724.75;5096032;27;45345;-69
2022/01/27 08:44:32;;;;;;;;;43.25;36.25;;;;;7.57;58.67;102720.22;5095301;27;45652;-70
2022/01/27 08:46:57;;;;;;;;;48.50;37.00;;;;;7.46;58.52;102690.22;5095105;27;45430;-67
2022/01/27 08:49:26;;;;;;;;;51.25;36.25;;;;;7.55;58.85;102709.47;5095547;27;45474;-69
2022/01/27 08:51:52;;;;;;;;;50.00;36.50;;;;;7.61;58.76;102726.72;5095881;27;45300;-67
2022/01/27 08:54:17;;;;;;;;;48.00;36.00;;;;;7.54;58.89;102714.72;5095333;27;46149;-69
2022/01/27 08:56:43;;;;;;;;;46.00;38.00;;;;;7.59;58.45;102715.03;5095383;27;45403;-68
2022/01/27 08:59:09;;;;;;;;;57.25;38.75;;;;;7.58;58.52;102716.75;5095398;27;45471;-69
2022/01/27 09:01:35;;;;;;;;;57.50;40.50;;;;;7.55;59.00;102705.91;5095325;27;45564;-68
2022/01/27 09:04:01;;;;;;;;;56.25;38.50;;;;;7.59;58.68;102705.31;5094875;27;45440;-68
2022/01/27 09:06:30;;;;;;;;;49.50;39.50;;;;;7.58;58.30;102698.16;5094951;27;45441;-68
2022/01/27 09:08:56;;;;;;;;;48.00;37.25;;;;;7.67;58.83;102704.13;5095236;27;45425;-67
2022/01/27 09:11:23;;;;;;;;;46.25;38.25;;;;;7.71;58.41;102703.50;5095147;27;45427;-69
2022/01/27 09:13:48;;;;;;;;;46.75;37.25;;;;;7.69;58.29;102685.59;5095019;27;45362;-67
2022/01/27 09:16:15;;;;;;;;;48.25;39.00;;;;;7.34;58.22;102622.88;5095033;27;45476;-68
2022/01/27 09:18:41;;;;;;;;;51.25;36.75;;;;;7.74;58.09;102684.19;5076514;27;45465;-69
2022/01/27 09:21:12;;;;;;;;;49.50;39.50;;;;;7.78;57.95;102683.56;5095401;27;45432;-69
2022/01/27 09:23:38;;;;;;;;;56.25;40.75;;;;;7.66;58.43;102670.34;5076992;27;46954;-68
2022/01/27 09:26:07;;;;;;;;;48.25;37.75;;;;;7.86;58.05;102687.66;5095235;27;45536;-70
2022/01/27 09:28:33;;;;;;;;;56.25;43.50;;;;;7.92;57.62;102685.44;5094931;27;45410;-69
2022/01/27 09:31:01;;;;;;;;;59.00;42.25;;;;;7.97;58.51;102684.81;5095521;27;45344;-70
2022/01/27 09:33:27;;;;;;;;;61.75;44.50;;;;;7.92;57.67;102666.81;5094493;27;45931;-69
2022/01/27 09:35:54;;;;;;;;;67.00;49.00;;;;;8.02;57.66;102689.66;5092764;27;45624;-68
2022/01/27 09:38:20;;;;;;;;;63.25;47.00;;;;;8.04;57.68;102687.09;5094880;27;45461;-70
2022/01/27 09:40:49;;;;;;;;;59.00;44.25;;;;;7.57;58.10;102606.78;5094958;27;45504;-70
2022/01/27 09:43:15;;;;;;;;;52.50;42.25;;;;;7.99;58.34;102683.19;5094487;27;45448;-69
2022/01/27 09:45:41;;;;;;;;;49.00;38.25;;;;;7.85;58.56;102650.31;5094677;27;45309;-69
2022/01/27 09:48:15;;;;;;;;;66.25;49.25;;;;;8.14;58.08;102696.63;5094369;27;45436;-69
2022/01/27 09:53:30;;;;;;;;;52.50;41.00;;;;;8.27;57.06;102684.22;5094446;27;45822;-68
2022/01/27 09:55:57;;;;;;;;;57.25;41.75;;;;;8.34;56.90;102687.31;5094278;27;45527;-68
2022/01/27 09:58:23;;;;;;;;;50.25;40.25;;;;;8.34;57.40;102677.56;5094287;27;45420;-69
2022/01/27 10:00:49;;;;;;;;;53.00;38.50;;;;;8.23;56.93;102666.22;5094369;27;45319;-69
2022/01/27 10:03:17;;;;;;;;;48.75;39.50;;;;;8.18;57.71;102646.31;5094198;27;46069;-69
2022/01/27 10:05:44;;;;;;;;;56.25;38.75;;;;;8.38;57.87;102673.38;5093741;27;45350;-68
2022/01/27 10:08:19;;;;;;;;;59.25;43.25;;;;;8.36;57.62;102677.69;5093873;27;45390;-68
2022/01/27 10:10:50;;;;;;;;;46.25;36.75;;;;;8.42;57.70;102670.09;5094766;27;45581;-67
2022/01/27 10:13:34;;;;;;;;;44.50;35.50;;;;;8.42;57.50;102670.09;5097756;27;45989;-68
2022/01/27 10:16:01;;;;;;;;;44.50;37.25;;;;;8.43;57.75;102666.63;5093193;27;45491;-67
2022/01/27 10:18:34;;;;;;;;;52.50;40.25;;;;;8.38;57.15;102674.31;5117614;27;45452;-68
2022/01/27 10:21:02;;;;;;;;;42.25;35.25;;;;;8.39;57.32;102685.88;5117415;27;45494;-68
2022/01/27 10:23:34;;;;;;;;;52.00;37.25;;;;;8.37;57.62;102682.19;5116483;27;46059;-70
2022/01/27 10:26:13;;;;;;;;;51.25;39.00;;;;;8.39;57.12;102685.88;5117217;27;45530;-68
2022/01/27 10:28:58;;;;;;;;;42.00;35.50;;;;;8.42;57.53;102691.41;5117827;27;45403;-67
2022/01/27 10:31:26;;;;;;;;;51.25;36.50;;;;;8.41;57.78;102694.88;5117878;27;45616;-70
2022/01/27 10:33:56;;;;;;;;;41.75;35.25;;;;;8.34;57.14;102679.31;5117194;27;46203;-69
2022/01/27 10:36:22;;;;;;;;;63.25;42.50;;;;;8.44;57.77;102681.81;5117401;27;45482;-68
2022/01/27 10:39:03;;;;;;;;;47.25;39.75;;;;;8.38;58.00;102663.66;5117038;27;45280;-68
2022/01/27 10:41:32;;;;;;;;;48.25;37.50;;;;;8.45;57.80;102673.91;5117154;27;45414;-69
2022/01/27 10:44:31;;;;;;;;;46.00;37.00;;;;;8.38;57.22;102642.34;5116371;27;46163;-68
2022/01/27 10:47:01;;;;;;;;;55.75;39.00;;;;;8.53;58.19;102668.16;5116730;27;45472;-70
2022/01/27 10:49:33;;;;;;;;;54.50;36.25;;;;;8.50;58.11;102668.91;5116765;27;45341;-68
2022/01/27 10:51:58;;;;;;;;;46.75;36.25;;;;;8.53;57.13;102690.41;5117140;27;45439;-68
2022/01/27 10:54:49;;;;;;;;;53.25;36.00;;;;;8.50;57.06;102652.91;5116674;27;45410;-69
2022/01/27 10:57:16;;;;;;;;;41.75;35.50;;;;;8.47;57.57;102658.94;5116471;27;45457;-68
2022/01/27 10:59:43;;;;;;;;;53.00;37.25;;;;;8.47;57.55;102642.97;5116695;27;45513;-69
2022/01/27 11:02:12;;;;;;;;;53.25;37.00;;;;;8.53;57.84;102638.84;5116720;27;45439;-69
2022/01/27 11:04:43;;;;;;;;;52.00;38.00;;;;;8.67;56.83;102665.56;5116391;27;45498;-68
2022/01/27 11:07:11;;;;;;;;;46.25;31.00;;;;;8.73;57.45;102681.06;5107343;27;45468;-70
2022/01/27 11:09:41;;;;;;;;;50.75;39.00;;;;;8.72;57.11;102673.88;5106170;27;45565;-68
2022/01/27 11:12:14;;;;;;;;;44.25;34.75;;;;;8.61;57.25;102656.25;5117001;27;45429;-67
2022/01/27 11:14:40;;;;;;;;;44.50;36.00;;;;;8.80;56.71;102677.94;5116052;27;46287;-69
2022/01/27 11:17:20;;;;;;;;;54.75;38.00;;;;;8.77;57.17;102672.41;5115910;27;45345;-69
2022/01/27 11:27:53;;;;;;;;;57.50;42.50;;;;;8.84;56.99;102673.75;5116467;27;45592;-68
2022/01/27 11:30:37;;;;;;;;;60.50;45.50;;;;;8.86;57.33;102664.13;5116520;27;45429;-70
2022/01/27 11:33:06;;;;;;;;;56.00;36.75;;;;;8.87;57.43;102665.94;5096570;27;45400;-68
2022/01/27 11:35:32;;;;;;;;;54.00;39.50;;;;;8.69;57.69;102620.38;5109215;27;46421;-69
2022/01/27 11:38:04;;;;;;;;;48.25;37.00;;;;;8.88;57.22;102661.56;5103247;27;45367;-68
2022/01/27 11:40:44;;;;;;;;;48.25;35.75;;;;;8.88;56.80;102662.47;5109823;27;45431;-70
2022/01/27 11:43:12;;;;;;;;;45.50;37.25;;;;;8.91;57.57;102654.66;5116361;27;45396;-68
2022/01/27 11:45:44;;;;;;;;;46.50;36.25;;;;;8.87;56.52;102633.03;5114746;27;46432;-69
2022/01/27 11:48:15;;;;;;;;;55.75;37.50;;;;;8.95;57.38;102638.03;5115989;27;46317;-69
2022/01/27 11:50:55;;;;;;;;;51.75;41.00;;;;;8.98;57.39;102645.31;5115219;27;45454;-70
2022/01/27 11:53:48;;;;;;;;;40.50;37.25;;;;;9.02;56.46;102629.63;5115953;27;45405;-68
2022/01/27 11:56:23;;;;;;;;;45.75;29.75;;;;;9.06;57.08;102625.38;5113692;27;45915;-71
2022/01/27 11:58:50;;;;;;;;;47.75;37.75;;;;;9.10;56.48;102629.16;5097590;27;45375;-70
2022/01/27 12:01:17;;;;;;;;;53.00;40.50;;;;;9.03;56.77;102610.09;5115971;27;45469;-70
2022/01/27 12:04:06;;;;;;;;;52.50;38.75;;;;;9.12;56.47;102625.75;5115545;27;45329;-70
2022/01/27 12:06:32;;;;;;;;;56.75;42.75;;;;;9.16;57.25;102626.88;5114959;27;45640;-69
2022/01/27 12:09:19;;;;;;;;;52.00;41.50;;;;;9.17;57.18;102624.31;5115691;27;45634;-69